createdAt,value
2022-12-15T00:12:16.597Z,-6.09
2022-12-15T00:33:05.845Z,-6.12
2022-12-15T01:10:56.726Z,-6.22
2022-12-15T01:47:34.622Z,-6.24
2022-12-15T01:58:53.820Z,-6.24
2022-12-15T02:15:21.045Z,-6.27
2022-12-15T02:18:35.488Z,-6.28
2022-12-15T02:30:15.363Z,-6.31
2022-12-15T02:33:03.155Z,-6.39
2022-12-15T02:35:59.003Z,-6.45
2022-12-15T03:08:59.366Z,-6.48
2022-12-15T03:11:26.598Z,-6.46
2022-12-15T03:13:54.172Z,-6.47
2022-12-15T03:16:22.046Z,-6.44
2022-12-15T03:18:49.459Z,-6.42
2022-12-15T03:21:16.704Z,-6.33
2022-12-15T03:23:43.891Z,-6.25
2022-12-15T03:26:11.914Z,-6.18
2022-12-15T03:28:39.152Z,-6.17
2022-12-15T03:31:06.286Z,-6.12
2022-12-15T03:33:34.777Z,-6.09
2022-12-15T03:36:02.345Z,-6.04
2022-12-15T03:38:29.563Z,-6.01
2022-12-15T03:40:56.686Z,-5.96
2022-12-15T03:43:23.856Z,-5.94
2022-12-15T03:45:51.066Z,-5.92
2022-12-15T03:48:18.343Z,-5.93
2022-12-15T03:50:45.579Z,-6.02
2022-12-15T03:53:12.896Z,-6.05
2022-12-15T03:55:40.386Z,-6.04
2022-12-15T03:58:07.655Z,-5.97
2022-12-15T04:05:55.909Z,-6.05
2022-12-15T04:22:06.294Z,-6.18
2022-12-15T04:42:40.536Z,-6.44
2022-12-15T04:45:27.276Z,-6.32
2022-12-15T04:48:16.309Z,-6.25
2022-12-15T04:51:02.609Z,-6.25
2022-12-15T04:53:48.306Z,-6.20
2022-12-15T04:56:37.839Z,-6.34
2022-12-15T04:59:23.625Z,-6.51
2022-12-15T05:34:01.085Z,-6.91
2022-12-15T06:56:00.641Z,-7.78
2022-12-15T06:58:28.158Z,-7.77
2022-12-15T07:00:56.119Z,-7.77
2022-12-15T07:03:23.719Z,-7.85
2022-12-15T07:06:04.869Z,-8.02
2022-12-15T07:08:39.533Z,-7.99
2022-12-15T07:11:11.837Z,-7.88
2022-12-15T07:13:43.200Z,-7.84
2022-12-15T07:16:11.700Z,-7.85
2022-12-15T07:18:40.588Z,-7.81
2022-12-15T07:21:09.563Z,-7.79
2022-12-15T07:23:53.983Z,-7.87
2022-12-15T07:26:22.890Z,-7.85
2022-12-15T07:28:50.278Z,-7.85
2022-12-15T07:31:18.206Z,-7.87
2022-12-15T07:33:45.738Z,-7.81
2022-12-15T07:36:13.172Z,-7.86
2022-12-15T07:38:42.561Z,-8.01
2022-12-15T07:41:10.252Z,-8.01
2022-12-15T07:43:38.448Z,-7.95
2022-12-15T07:46:06.164Z,-7.97
2022-12-15T07:48:36.148Z,-7.93
2022-12-15T07:51:15.264Z,-7.99
2022-12-15T07:53:47.837Z,-7.95
2022-12-15T07:56:15.479Z,-7.89
2022-12-15T07:58:43.081Z,-7.90
2022-12-15T08:01:12.641Z,-7.87
2022-12-15T08:03:40.978Z,-7.87
2022-12-15T08:06:13.145Z,-7.88
2022-12-15T08:08:40.770Z,-7.86
2022-12-15T08:11:13.671Z,-7.95
2022-12-15T08:16:30.249Z,-7.84
2022-12-15T08:18:57.548Z,-7.74
2022-12-15T08:21:24.915Z,-7.70
2022-12-15T08:23:52.672Z,-7.66
2022-12-15T08:26:23.781Z,-7.63
2022-12-15T08:28:55.438Z,-7.56
2022-12-15T08:31:24.358Z,-7.54
2022-12-15T08:33:51.628Z,-7.53
2022-12-15T08:36:20.432Z,-7.57
2022-12-15T08:38:47.765Z,-7.62
2022-12-15T08:41:23.355Z,-7.59
2022-12-15T08:43:51.181Z,-7.60
2022-12-15T08:46:21.657Z,-7.61
2022-12-15T08:48:49.460Z,-7.57
2022-12-15T08:51:17.382Z,-7.55
2022-12-15T08:53:45.555Z,-7.46
2022-12-15T08:56:18.232Z,-7.36
2022-12-15T08:58:48.094Z,-7.31
2022-12-15T09:01:23.290Z,-7.31
2022-12-15T09:03:53.841Z,-7.32
2022-12-15T09:06:32.324Z,-7.19
2022-12-15T09:09:02.144Z,-7.10
2022-12-15T09:11:30.436Z,-7.00
2022-12-15T09:13:58.180Z,-6.98
2022-12-15T09:16:25.473Z,-6.88
2022-12-15T09:18:54.885Z,-6.77
2022-12-15T09:21:26.663Z,-6.76
2022-12-15T09:23:56.072Z,-6.70
2022-12-15T09:26:24.024Z,-6.68
2022-12-15T09:28:52.070Z,-6.61
2022-12-15T09:31:23.716Z,-6.53
2022-12-15T09:33:52.746Z,-6.55
2022-12-15T09:36:20.911Z,-6.54
2022-12-15T09:38:55.171Z,-6.55
2022-12-15T09:41:30.721Z,-6.39
2022-12-15T09:44:07.641Z,-6.25
2022-12-15T09:46:50.597Z,-6.16
2022-12-15T09:49:30.229Z,-6.14
2022-12-15T09:52:11.050Z,-6.15
2022-12-15T09:54:41.901Z,-6.15
2022-12-15T09:57:52.143Z,-6.09
2022-12-15T10:00:21.853Z,-6.00
2022-12-15T10:03:04.589Z,-5.83
2022-12-15T10:08:35.823Z,-5.70
2022-12-15T10:11:32.145Z,-5.64
2022-12-15T10:14:30.567Z,-5.48
2022-12-15T10:17:19.384Z,-5.31
2022-12-15T10:20:06.607Z,-5.26
2022-12-15T10:22:38.166Z,-5.35
2022-12-15T10:25:14.733Z,-5.30
2022-12-15T10:27:57.189Z,-5.28
2022-12-15T10:30:24.906Z,-5.15
2022-12-15T10:33:19.209Z,-5.13
2022-12-15T10:35:46.732Z,-5.08
2022-12-15T10:38:54.071Z,-5.10
2022-12-15T10:41:24.322Z,-5.02
2022-12-15T10:43:53.927Z,-4.94
2022-12-15T10:46:34.275Z,-4.88
2022-12-15T10:49:11.388Z,-4.86
2022-12-15T10:51:50.052Z,-4.90
2022-12-15T10:54:19.489Z,-4.85
2022-12-15T10:56:52.489Z,-4.66
2022-12-15T10:59:31.529Z,-4.46
2022-12-15T11:02:37.264Z,-4.10
2022-12-15T11:05:06.312Z,-3.92
2022-12-15T11:07:43.695Z,-3.78
2022-12-15T11:10:14.059Z,-3.54
2022-12-15T11:12:58.246Z,-3.51
2022-12-15T11:16:11.685Z,-3.65
2022-12-15T11:18:48.969Z,-3.53
2022-12-15T11:21:35.641Z,-3.46
2022-12-15T11:24:09.383Z,-3.19
2022-12-15T11:26:49.264Z,-3.19
2022-12-15T11:29:25.819Z,-3.14
2022-12-15T11:31:54.668Z,-3.10
2022-12-15T11:34:31.698Z,-3.13
2022-12-15T11:36:59.254Z,-3.20
2022-12-15T11:39:49.407Z,-3.17
2022-12-15T11:42:17.714Z,-3.06
2022-12-15T11:44:55.260Z,-3.01
2022-12-15T11:47:48.175Z,-3.01
2022-12-15T11:50:37.337Z,-2.96
2022-12-15T11:53:15.958Z,-2.95
2022-12-15T11:56:03.978Z,-2.85
2022-12-15T11:58:34.735Z,-2.81
2022-12-15T12:01:21.112Z,-2.79
2022-12-15T12:04:03.329Z,-2.72
2022-12-15T12:06:41.348Z,-2.71
2022-12-15T12:09:18.602Z,-2.73
2022-12-15T12:11:48.869Z,-2.71
2022-12-15T12:14:56.671Z,-2.64
2022-12-15T12:17:34.154Z,-2.64
2022-12-15T12:23:02.283Z,-2.32
2022-12-15T12:25:31.240Z,-2.17
2022-12-15T12:28:07.414Z,-1.63
2022-12-15T12:30:46.081Z,-0.98
2022-12-15T12:33:45.793Z,-0.48
2022-12-15T12:36:20.549Z,-0.28
2022-12-15T12:38:56.157Z,-0.12
2022-12-15T12:41:35.679Z,0.09
2022-12-15T12:44:09.919Z,0.24
2022-12-15T12:46:46.495Z,0.42
2022-12-15T12:49:39.341Z,0.74
2022-12-15T12:52:23.487Z,0.78
2022-12-15T12:54:58.800Z,0.79
2022-12-15T12:57:30.974Z,1.05
2022-12-15T13:00:06.308Z,1.27
2022-12-15T13:02:38.129Z,1.21
2022-12-15T13:05:25.934Z,1.15
2022-12-15T13:08:13.617Z,0.73
2022-12-15T13:10:50.954Z,0.56
2022-12-15T13:13:33.884Z,0.60
2022-12-15T13:16:30.745Z,0.87
2022-12-15T13:19:06.808Z,0.79
2022-12-15T13:21:48.513Z,0.72
2022-12-15T13:24:19.635Z,0.69
2022-12-15T13:26:48.692Z,0.79
2022-12-15T13:29:21.082Z,0.81
2022-12-15T13:31:49.752Z,0.69
2022-12-15T13:34:23.087Z,0.69
2022-12-15T13:36:56.232Z,0.78
2022-12-15T13:39:30.459Z,0.73
2022-12-15T13:44:55.294Z,0.68
2022-12-15T13:47:25.471Z,0.62
2022-12-15T13:50:02.393Z,0.39
2022-12-15T13:55:38.411Z,0.35
2022-12-15T13:58:19.069Z,0.23
2022-12-15T14:00:55.238Z,0.18
2022-12-15T14:03:26.457Z,0.17
2022-12-15T14:05:56.490Z,0.17
2022-12-15T14:08:28.941Z,0.13
2022-12-15T14:10:58.883Z,0.09
2022-12-15T14:13:31.755Z,0.08
2022-12-15T14:16:05.300Z,0.07
2022-12-15T14:18:37.690Z,0.04
2022-12-15T14:21:20.372Z,-0.09
2022-12-15T14:26:35.981Z,-0.36
2022-12-15T14:29:06.616Z,-0.41
2022-12-15T14:31:41.857Z,-0.52
2022-12-15T14:34:24.089Z,-0.52
2022-12-15T14:36:56.848Z,-0.53
2022-12-15T14:39:40.827Z,-0.54
2022-12-15T15:03:04.871Z,-2.53
